sensor_id;sensor_type;location;lat;lon;timestamp;temperature;humidity
23629;DHT22;11991;57.150;-2.134;2023-08-07T00:01:58;14.20;99.90
23629;DHT22;11991;57.150;-2.134;2023-08-07T00:04:25;14.20;99.90
23629;DHT22;11991;57.150;-2.134;2023-08-07T00:06:52;14.20;99.90
23629;DHT22;11991;57.150;-2.134;2023-08-07T00:09:19;14.20;99.90
23629;DHT22;11991;57.150;-2.134;2023-08-07T00:11:46;14.20;99.90
23629;DHT22;11991;57.150;-2.134;2023-08-07T00:14:13;14.20;99.90
23629;DHT22;11991;57.150;-2.134;2023-08-07T00:16:41;14.20;99.90
23629;DHT22;11991;57.150;-2.134;2023-08-07T00:19:09;14.20;99.90
23629;DHT22;11991;57.150;-2.134;2023-08-07T00:21:36;14.20;99.90
23629;DHT22;11991;57.150;-2.134;2023-08-07T00:24:03;14.20;99.90
23629;DHT22;11991;57.150;-2.134;2023-08-07T00:26:30;14.20;99.90
23629;DHT22;11991;57.150;-2.134;2023-08-07T00:28:59;14.20;99.90
23629;DHT22;11991;57.150;-2.134;2023-08-07T00:31:26;14.20;99.90
23629;DHT22;11991;57.150;-2.134;2023-08-07T00:33:53;14.20;99.90
23629;DHT22;11991;57.150;-2.134;2023-08-07T00:36:22;14.20;99.90
23629;DHT22;11991;57.150;-2.134;2023-08-07T00:38:50;14.20;99.90
23629;DHT22;11991;57.150;-2.134;2023-08-07T00:41:17;14.20;99.90
23629;DHT22;11991;57.150;-2.134;2023-08-07T00:43:45;14.20;99.90
23629;DHT22;11991;57.150;-2.134;2023-08-07T00:46:12;14.20;99.90
23629;DHT22;11991;57.150;-2.134;2023-08-07T00:48:39;14.20;99.90
23629;DHT22;11991;57.150;-2.134;2023-08-07T00:51:07;14.20;99.90
23629;DHT22;11991;57.150;-2.134;2023-08-07T00:53:38;14.10;99.90
23629;DHT22;11991;57.150;-2.134;2023-08-07T00:56:07;14.10;99.90
23629;DHT22;11991;57.150;-2.134;2023-08-07T00:58:35;14.10;99.90
23629;DHT22;11991;57.150;-2.134;2023-08-07T01:01:03;14.10;99.90
23629;DHT22;11991;57.150;-2.134;2023-08-07T01:03:31;14.10;99.90
23629;DHT22;11991;57.150;-2.134;2023-08-07T01:06:00;14.10;99.90
23629;DHT22;11991;57.150;-2.134;2023-08-07T01:08:28;14.10;99.90
23629;DHT22;11991;57.150;-2.134;2023-08-07T01:14:02;14.10;99.90
23629;DHT22;11991;57.150;-2.134;2023-08-07T01:16:44;14.10;99.90
23629;DHT22;11991;57.150;-2.134;2023-08-07T01:19:25;14.10;99.90
23629;DHT22;11991;57.150;-2.134;2023-08-07T01:24:38;14.00;99.90
23629;DHT22;11991;57.150;-2.134;2023-08-07T01:35:22;13.90;99.90
23629;DHT22;11991;57.150;-2.134;2023-08-07T01:37:53;13.80;99.90
23629;DHT22;11991;57.150;-2.134;2023-08-07T01:40:22;13.90;99.90
23629;DHT22;11991;57.150;-2.134;2023-08-07T01:42:52;13.90;99.90
23629;DHT22;11991;57.150;-2.134;2023-08-07T01:45:24;13.80;99.90
23629;DHT22;11991;57.150;-2.134;2023-08-07T01:47:52;13.90;99.90
23629;DHT22;11991;57.150;-2.134;2023-08-07T01:50:24;13.80;99.90
23629;DHT22;11991;57.150;-2.134;2023-08-07T01:52:52;13.80;99.90
23629;DHT22;11991;57.150;-2.134;2023-08-07T01:55:20;13.90;99.90
23629;DHT22;11991;57.150;-2.134;2023-08-07T01:57:51;13.80;99.90
23629;DHT22;11991;57.150;-2.134;2023-08-07T02:00:18;13.80;99.90
23629;DHT22;11991;57.150;-2.134;2023-08-07T02:02:46;13.80;99.90
23629;DHT22;11991;57.150;-2.134;2023-08-07T02:05:15;13.80;99.90
23629;DHT22;11991;57.150;-2.134;2023-08-07T02:07:42;13.80;99.90
23629;DHT22;11991;57.150;-2.134;2023-08-07T02:10:10;13.80;99.90
23629;DHT22;11991;57.150;-2.134;2023-08-07T02:12:37;13.80;99.90
23629;DHT22;11991;57.150;-2.134;2023-08-07T02:15:04;13.80;99.90
23629;DHT22;11991;57.150;-2.134;2023-08-07T02:17:31;13.80;99.90
23629;DHT22;11991;57.150;-2.134;2023-08-07T02:20:00;13.80;99.90
23629;DHT22;11991;57.150;-2.134;2023-08-07T02:22:27;13.80;99.90
23629;DHT22;11991;57.150;-2.134;2023-08-07T02:24:54;13.70;99.90
23629;DHT22;11991;57.150;-2.134;2023-08-07T02:27:21;13.70;99.90
23629;DHT22;11991;57.150;-2.134;2023-08-07T02:29:48;13.70;99.90
23629;DHT22;11991;57.150;-2.134;2023-08-07T02:32:15;13.70;99.90
23629;DHT22;11991;57.150;-2.134;2023-08-07T02:34:43;13.70;99.90
23629;DHT22;11991;57.150;-2.134;2023-08-07T02:37:11;13.70;99.90
23629;DHT22;11991;57.150;-2.134;2023-08-07T02:39:38;13.70;99.90
23629;DHT22;11991;57.150;-2.134;2023-08-07T02:42:05;13.80;99.90
23629;DHT22;11991;57.150;-2.134;2023-08-07T02:44:34;13.80;99.90
23629;DHT22;11991;57.150;-2.134;2023-08-07T02:47:01;13.80;99.90
23629;DHT22;11991;57.150;-2.134;2023-08-07T02:49:28;13.80;99.90
23629;DHT22;11991;57.150;-2.134;2023-08-07T02:51:55;13.80;99.90
23629;DHT22;11991;57.150;-2.134;2023-08-07T02:54:22;13.80;99.90
23629;DHT22;11991;57.150;-2.134;2023-08-07T02:56:49;13.80;99.90
23629;DHT22;11991;57.150;-2.134;2023-08-07T02:59:17;13.80;99.90
23629;DHT22;11991;57.150;-2.134;2023-08-07T03:01:44;13.80;99.90
23629;DHT22;11991;57.150;-2.134;2023-08-07T03:04:11;13.80;99.90
23629;DHT22;11991;57.150;-2.134;2023-08-07T03:06:38;13.80;99.90
23629;DHT22;11991;57.150;-2.134;2023-08-07T03:09:06;13.80;99.90
23629;DHT22;11991;57.150;-2.134;2023-08-07T03:11:33;13.80;99.90
23629;DHT22;11991;57.150;-2.134;2023-08-07T03:14:00;13.80;99.90
23629;DHT22;11991;57.150;-2.134;2023-08-07T03:16:27;13.80;99.90
23629;DHT22;11991;57.150;-2.134;2023-08-07T03:18:54;13.80;99.90
23629;DHT22;11991;57.150;-2.134;2023-08-07T03:21:22;13.80;99.90
23629;DHT22;11991;57.150;-2.134;2023-08-07T03:23:49;13.80;99.90
23629;DHT22;11991;57.150;-2.134;2023-08-07T03:26:16;13.70;99.90
23629;DHT22;11991;57.150;-2.134;2023-08-07T03:28:47;13.70;99.90
23629;DHT22;11991;57.150;-2.134;2023-08-07T03:31:16;13.70;99.90
23629;DHT22;11991;57.150;-2.134;2023-08-07T03:33:43;13.70;99.90
23629;DHT22;11991;57.150;-2.134;2023-08-07T03:36:12;13.70;99.90
23629;DHT22;11991;57.150;-2.134;2023-08-07T03:38:40;13.70;99.90
23629;DHT22;11991;57.150;-2.134;2023-08-07T03:41:08;13.70;99.90
23629;DHT22;11991;57.150;-2.134;2023-08-07T03:43:37;13.70;99.90
23629;DHT22;11991;57.150;-2.134;2023-08-07T03:46:04;13.70;99.90
23629;DHT22;11991;57.150;-2.134;2023-08-07T03:48:31;13.70;99.90
23629;DHT22;11991;57.150;-2.134;2023-08-07T03:51:05;13.60;99.90
23629;DHT22;11991;57.150;-2.134;2023-08-07T03:53:37;13.60;99.90
23629;DHT22;11991;57.150;-2.134;2023-08-07T03:56:04;13.50;99.90
23629;DHT22;11991;57.150;-2.134;2023-08-07T03:58:33;13.50;99.90
23629;DHT22;11991;57.150;-2.134;2023-08-07T04:01:00;13.50;99.90
23629;DHT22;11991;57.150;-2.134;2023-08-07T04:03:27;13.50;99.90
23629;DHT22;11991;57.150;-2.134;2023-08-07T04:05:55;13.50;99.90
23629;DHT22;11991;57.150;-2.134;2023-08-07T04:08:22;13.50;99.90
23629;DHT22;11991;57.150;-2.134;2023-08-07T04:11:04;13.40;99.90
23629;DHT22;11991;57.150;-2.134;2023-08-07T04:13:33;13.50;99.90
23629;DHT22;11991;57.150;-2.134;2023-08-07T04:16:01;13.50;99.90
23629;DHT22;11991;57.150;-2.134;2023-08-07T04:18:32;13.50;99.90
23629;DHT22;11991;57.150;-2.134;2023-08-07T04:21:01;13.50;99.90
23629;DHT22;11991;57.150;-2.134;2023-08-07T04:23:29;13.50;99.90
23629;DHT22;11991;57.150;-2.134;2023-08-07T04:25:56;13.50;99.90
23629;DHT22;11991;57.150;-2.134;2023-08-07T04:28:24;13.50;99.90
23629;DHT22;11991;57.150;-2.134;2023-08-07T04:30:51;13.50;99.90
23629;DHT22;11991;57.150;-2.134;2023-08-07T04:33:20;13.50;99.90
23629;DHT22;11991;57.150;-2.134;2023-08-07T04:35:47;13.40;99.90
23629;DHT22;11991;57.150;-2.134;2023-08-07T04:38:17;13.30;99.90
23629;DHT22;11991;57.150;-2.134;2023-08-07T04:40:48;13.30;99.90
23629;DHT22;11991;57.150;-2.134;2023-08-07T04:43:17;13.30;99.90
23629;DHT22;11991;57.150;-2.134;2023-08-07T04:45:44;13.30;99.90
23629;DHT22;11991;57.150;-2.134;2023-08-07T04:48:14;13.30;99.90
23629;DHT22;11991;57.150;-2.134;2023-08-07T04:50:42;13.30;99.90
23629;DHT22;11991;57.150;-2.134;2023-08-07T04:53:09;13.30;99.90
23629;DHT22;11991;57.150;-2.134;2023-08-07T04:55:36;13.40;99.90
23629;DHT22;11991;57.150;-2.134;2023-08-07T04:58:03;13.40;99.90
23629;DHT22;11991;57.150;-2.134;2023-08-07T05:00:30;13.40;99.90
23629;DHT22;11991;57.150;-2.134;2023-08-07T05:02:57;13.30;99.90
23629;DHT22;11991;57.150;-2.134;2023-08-07T05:05:25;13.30;99.90
23629;DHT22;11991;57.150;-2.134;2023-08-07T05:07:54;13.30;99.90
23629;DHT22;11991;57.150;-2.134;2023-08-07T05:10:21;13.40;99.90
23629;DHT22;11991;57.150;-2.134;2023-08-07T05:12:48;13.40;99.90
23629;DHT22;11991;57.150;-2.134;2023-08-07T05:15:15;13.40;99.90
23629;DHT22;11991;57.150;-2.134;2023-08-07T05:17:43;13.40;99.90
23629;DHT22;11991;57.150;-2.134;2023-08-07T05:20:10;13.40;99.90
23629;DHT22;11991;57.150;-2.134;2023-08-07T05:22:38;13.50;99.90
23629;DHT22;11991;57.150;-2.134;2023-08-07T05:25:05;13.50;99.90
23629;DHT22;11991;57.150;-2.134;2023-08-07T05:27:32;13.50;99.90
23629;DHT22;11991;57.150;-2.134;2023-08-07T05:29:59;13.50;99.90
23629;DHT22;11991;57.150;-2.134;2023-08-07T05:32:27;13.60;99.90
23629;DHT22;11991;57.150;-2.134;2023-08-07T05:34:55;13.60;99.90
23629;DHT22;11991;57.150;-2.134;2023-08-07T05:37:22;13.70;99.90
23629;DHT22;11991;57.150;-2.134;2023-08-07T05:39:49;13.70;99.90
23629;DHT22;11991;57.150;-2.134;2023-08-07T05:42:16;13.80;99.90
23629;DHT22;11991;57.150;-2.134;2023-08-07T05:44:44;13.80;99.90
23629;DHT22;11991;57.150;-2.134;2023-08-07T05:47:11;13.90;99.90
23629;DHT22;11991;57.150;-2.134;2023-08-07T05:49:38;13.90;99.90
23629;DHT22;11991;57.150;-2.134;2023-08-07T05:52:06;13.90;99.90
23629;DHT22;11991;57.150;-2.134;2023-08-07T05:54:34;13.90;99.90
23629;DHT22;11991;57.150;-2.134;2023-08-07T05:57:01;13.90;99.90
23629;DHT22;11991;57.150;-2.134;2023-08-07T05:59:28;13.90;99.90
23629;DHT22;11991;57.150;-2.134;2023-08-07T06:01:56;13.90;99.90
23629;DHT22;11991;57.150;-2.134;2023-08-07T06:04:26;13.90;99.90
23629;DHT22;11991;57.150;-2.134;2023-08-07T06:06:53;13.90;99.90
23629;DHT22;11991;57.150;-2.134;2023-08-07T06:09:20;14.00;99.90
23629;DHT22;11991;57.150;-2.134;2023-08-07T06:11:48;14.00;99.90
23629;DHT22;11991;57.150;-2.134;2023-08-07T06:14:15;14.00;99.90
23629;DHT22;11991;57.150;-2.134;2023-08-07T06:16:43;14.10;99.90
23629;DHT22;11991;57.150;-2.134;2023-08-07T06:19:10;14.10;99.90
23629;DHT22;11991;57.150;-2.134;2023-08-07T06:21:56;14.10;99.90
23629;DHT22;11991;57.150;-2.134;2023-08-07T06:24:24;14.20;99.90
23629;DHT22;11991;57.150;-2.134;2023-08-07T06:26:52;14.20;99.90
23629;DHT22;11991;57.150;-2.134;2023-08-07T06:29:20;14.20;99.90
23629;DHT22;11991;57.150;-2.134;2023-08-07T06:31:47;14.30;99.90
23629;DHT22;11991;57.150;-2.134;2023-08-07T06:34:14;14.30;99.90
23629;DHT22;11991;57.150;-2.134;2023-08-07T06:36:41;14.40;99.90
23629;DHT22;11991;57.150;-2.134;2023-08-07T06:39:08;14.40;99.90
23629;DHT22;11991;57.150;-2.134;2023-08-07T06:41:37;14.40;99.90
23629;DHT22;11991;57.150;-2.134;2023-08-07T06:44:04;14.50;99.90
23629;DHT22;11991;57.150;-2.134;2023-08-07T06:46:31;14.50;99.90
23629;DHT22;11991;57.150;-2.134;2023-08-07T06:48:58;14.50;99.90
23629;DHT22;11991;57.150;-2.134;2023-08-07T06:51:25;14.50;99.90
23629;DHT22;11991;57.150;-2.134;2023-08-07T06:53:52;14.60;99.90
23629;DHT22;11991;57.150;-2.134;2023-08-07T06:56:19;14.60;99.90
23629;DHT22;11991;57.150;-2.134;2023-08-07T06:58:47;14.60;99.90
23629;DHT22;11991;57.150;-2.134;2023-08-07T07:01:14;14.70;99.90
23629;DHT22;11991;57.150;-2.134;2023-08-07T07:03:42;14.70;99.90
23629;DHT22;11991;57.150;-2.134;2023-08-07T07:06:09;14.70;99.90
23629;DHT22;11991;57.150;-2.134;2023-08-07T07:08:36;14.70;99.90
23629;DHT22;11991;57.150;-2.134;2023-08-07T07:11:03;14.70;99.90
23629;DHT22;11991;57.150;-2.134;2023-08-07T07:13:31;14.70;99.90
23629;DHT22;11991;57.150;-2.134;2023-08-07T07:15:58;14.70;99.90
23629;DHT22;11991;57.150;-2.134;2023-08-07T07:18:26;14.70;99.90
23629;DHT22;11991;57.150;-2.134;2023-08-07T07:20:57;14.70;99.90
23629;DHT22;11991;57.150;-2.134;2023-08-07T07:23:25;14.60;99.90
23629;DHT22;11991;57.150;-2.134;2023-08-07T07:25:52;14.60;99.90
23629;DHT22;11991;57.150;-2.134;2023-08-07T07:28:20;14.50;99.90
23629;DHT22;11991;57.150;-2.134;2023-08-07T07:30:47;14.50;99.90
23629;DHT22;11991;57.150;-2.134;2023-08-07T07:33:14;14.50;99.90
23629;DHT22;11991;57.150;-2.134;2023-08-07T07:35:42;14.50;99.90
23629;DHT22;11991;57.150;-2.134;2023-08-07T07:38:10;14.50;99.90
23629;DHT22;11991;57.150;-2.134;2023-08-07T07:40:37;14.50;99.90
23629;DHT22;11991;57.150;-2.134;2023-08-07T07:43:04;14.50;99.90
23629;DHT22;11991;57.150;-2.134;2023-08-07T07:45:32;14.50;99.90
23629;DHT22;11991;57.150;-2.134;2023-08-07T07:48:03;14.50;99.90
23629;DHT22;11991;57.150;-2.134;2023-08-07T07:50:30;14.60;99.90
23629;DHT22;11991;57.150;-2.134;2023-08-07T07:52:57;14.60;99.90
23629;DHT22;11991;57.150;-2.134;2023-08-07T07:55:25;14.60;99.90
23629;DHT22;11991;57.150;-2.134;2023-08-07T07:57:53;14.70;99.90
23629;DHT22;11991;57.150;-2.134;2023-08-07T08:00:21;14.70;99.90
23629;DHT22;11991;57.150;-2.134;2023-08-07T08:02:53;14.80;99.90
23629;DHT22;11991;57.150;-2.134;2023-08-07T08:05:21;14.90;99.90
23629;DHT22;11991;57.150;-2.134;2023-08-07T08:07:48;14.90;99.90
23629;DHT22;11991;57.150;-2.134;2023-08-07T08:10:15;15.00;99.90
23629;DHT22;11991;57.150;-2.134;2023-08-07T08:12:42;15.00;99.90
23629;DHT22;11991;57.150;-2.134;2023-08-07T08:15:10;15.10;99.90
23629;DHT22;11991;57.150;-2.134;2023-08-07T08:17:37;15.10;99.90
23629;DHT22;11991;57.150;-2.134;2023-08-07T08:20:05;15.20;99.90
23629;DHT22;11991;57.150;-2.134;2023-08-07T08:22:32;15.30;99.90
23629;DHT22;11991;57.150;-2.134;2023-08-07T08:25:00;15.30;99.90
23629;DHT22;11991;57.150;-2.134;2023-08-07T08:27:28;15.40;99.90
23629;DHT22;11991;57.150;-2.134;2023-08-07T08:29:55;15.40;99.90
23629;DHT22;11991;57.150;-2.134;2023-08-07T08:32:22;15.50;99.90
23629;DHT22;11991;57.150;-2.134;2023-08-07T08:34:49;15.50;99.90
23629;DHT22;11991;57.150;-2.134;2023-08-07T08:37:17;15.60;99.90
23629;DHT22;11991;57.150;-2.134;2023-08-07T08:39:44;15.70;99.90
23629;DHT22;11991;57.150;-2.134;2023-08-07T08:42:12;15.80;99.90
23629;DHT22;11991;57.150;-2.134;2023-08-07T08:44:51;15.80;99.90
23629;DHT22;11991;57.150;-2.134;2023-08-07T08:47:21;16.00;99.90
23629;DHT22;11991;57.150;-2.134;2023-08-07T08:50:00;16.10;99.90
23629;DHT22;11991;57.150;-2.134;2023-08-07T08:52:31;16.20;99.90
23629;DHT22;11991;57.150;-2.134;2023-08-07T08:54:59;16.30;99.90
23629;DHT22;11991;57.150;-2.134;2023-08-07T08:57:26;16.40;99.90
23629;DHT22;11991;57.150;-2.134;2023-08-07T08:59:56;16.40;99.90
23629;DHT22;11991;57.150;-2.134;2023-08-07T09:02:23;16.40;99.90
23629;DHT22;11991;57.150;-2.134;2023-08-07T09:04:51;16.30;99.90
23629;DHT22;11991;57.150;-2.134;2023-08-07T09:07:20;16.30;99.90
23629;DHT22;11991;57.150;-2.134;2023-08-07T09:09:47;16.20;99.90
23629;DHT22;11991;57.150;-2.134;2023-08-07T09:12:26;16.10;99.90
23629;DHT22;11991;57.150;-2.134;2023-08-07T09:15:02;16.10;99.90
23629;DHT22;11991;57.150;-2.134;2023-08-07T09:17:35;16.10;99.90
23629;DHT22;11991;57.150;-2.134;2023-08-07T09:20:05;16.10;99.90
23629;DHT22;11991;57.150;-2.134;2023-08-07T09:22:35;16.10;99.90
23629;DHT22;11991;57.150;-2.134;2023-08-07T09:25:02;16.20;99.90
23629;DHT22;11991;57.150;-2.134;2023-08-07T09:27:31;16.30;99.90
23629;DHT22;11991;57.150;-2.134;2023-08-07T09:29:58;16.40;99.90
23629;DHT22;11991;57.150;-2.134;2023-08-07T09:32:26;16.50;99.90
23629;DHT22;11991;57.150;-2.134;2023-08-07T09:34:55;16.60;99.90
23629;DHT22;11991;57.150;-2.134;2023-08-07T09:37:23;16.60;99.90
23629;DHT22;11991;57.150;-2.134;2023-08-07T09:39:51;16.70;99.90
23629;DHT22;11991;57.150;-2.134;2023-08-07T09:42:18;16.80;99.90
23629;DHT22;11991;57.150;-2.134;2023-08-07T09:44:45;16.70;99.90
23629;DHT22;11991;57.150;-2.134;2023-08-07T09:47:17;16.80;99.90
23629;DHT22;11991;57.150;-2.134;2023-08-07T09:49:45;16.80;99.90
23629;DHT22;11991;57.150;-2.134;2023-08-07T09:52:14;16.80;99.90
23629;DHT22;11991;57.150;-2.134;2023-08-07T09:54:42;16.80;99.90
23629;DHT22;11991;57.150;-2.134;2023-08-07T09:57:09;16.70;99.90
23629;DHT22;11991;57.150;-2.134;2023-08-07T09:59:36;16.70;99.90
23629;DHT22;11991;57.150;-2.134;2023-08-07T10:02:04;16.70;99.90
23629;DHT22;11991;57.150;-2.134;2023-08-07T10:04:32;16.70;99.90
23629;DHT22;11991;57.150;-2.134;2023-08-07T10:07:01;16.70;99.90
23629;DHT22;11991;57.150;-2.134;2023-08-07T10:09:29;16.80;99.90
23629;DHT22;11991;57.150;-2.134;2023-08-07T10:11:58;16.80;99.90
23629;DHT22;11991;57.150;-2.134;2023-08-07T10:14:26;16.90;99.90
23629;DHT22;11991;57.150;-2.134;2023-08-07T10:16:53;16.90;99.90
23629;DHT22;11991;57.150;-2.134;2023-08-07T10:19:21;17.00;99.90
23629;DHT22;11991;57.150;-2.134;2023-08-07T10:21:49;17.00;99.90
23629;DHT22;11991;57.150;-2.134;2023-08-07T10:24:17;17.00;99.90
23629;DHT22;11991;57.150;-2.134;2023-08-07T10:26:46;17.00;99.90
23629;DHT22;11991;57.150;-2.134;2023-08-07T10:29:16;17.10;99.90
23629;DHT22;11991;57.150;-2.134;2023-08-07T10:31:45;17.10;99.90
23629;DHT22;11991;57.150;-2.134;2023-08-07T10:34:13;17.20;99.90
23629;DHT22;11991;57.150;-2.134;2023-08-07T10:36:40;17.20;99.90
23629;DHT22;11991;57.150;-2.134;2023-08-07T10:39:15;17.20;99.90
23629;DHT22;11991;57.150;-2.134;2023-08-07T10:41:46;17.30;99.90
23629;DHT22;11991;57.150;-2.134;2023-08-07T10:44:18;17.30;99.90
23629;DHT22;11991;57.150;-2.134;2023-08-07T10:46:56;17.30;99.90
23629;DHT22;11991;57.150;-2.134;2023-08-07T10:49:38;17.30;99.90
23629;DHT22;11991;57.150;-2.134;2023-08-07T10:52:09;17.30;99.90
23629;DHT22;11991;57.150;-2.134;2023-08-07T10:54:45;17.20;99.90
23629;DHT22;11991;57.150;-2.134;2023-08-07T10:57:13;17.20;99.90
23629;DHT22;11991;57.150;-2.134;2023-08-07T11:00:04;17.20;99.90
23629;DHT22;11991;57.150;-2.134;2023-08-07T11:02:32;17.20;99.90
23629;DHT22;11991;57.150;-2.134;2023-08-07T11:05:00;17.10;99.90
23629;DHT22;11991;57.150;-2.134;2023-08-07T11:07:30;17.20;99.90
23629;DHT22;11991;57.150;-2.134;2023-08-07T11:10:01;17.20;99.90
23629;DHT22;11991;57.150;-2.134;2023-08-07T11:12:29;17.10;99.90
23629;DHT22;11991;57.150;-2.134;2023-08-07T11:14:56;17.10;99.90
23629;DHT22;11991;57.150;-2.134;2023-08-07T11:17:28;17.10;99.90
23629;DHT22;11991;57.150;-2.134;2023-08-07T11:19:56;17.20;99.90
23629;DHT22;11991;57.150;-2.134;2023-08-07T11:22:23;17.30;99.90
23629;DHT22;11991;57.150;-2.134;2023-08-07T11:24:51;17.40;99.90
23629;DHT22;11991;57.150;-2.134;2023-08-07T11:27:20;17.40;99.90
23629;DHT22;11991;57.150;-2.134;2023-08-07T11:29:48;17.50;99.90
23629;DHT22;11991;57.150;-2.134;2023-08-07T11:32:16;17.60;99.90
23629;DHT22;11991;57.150;-2.134;2023-08-07T11:34:49;17.60;99.90
23629;DHT22;11991;57.150;-2.134;2023-08-07T11:37:19;17.60;99.90
23629;DHT22;11991;57.150;-2.134;2023-08-07T11:39:47;17.60;99.90
23629;DHT22;11991;57.150;-2.134;2023-08-07T11:42:15;17.40;99.90
23629;DHT22;11991;57.150;-2.134;2023-08-07T11:44:42;17.20;99.90
23629;DHT22;11991;57.150;-2.134;2023-08-07T11:47:10;17.10;99.90
23629;DHT22;11991;57.150;-2.134;2023-08-07T11:49:37;17.10;99.90
23629;DHT22;11991;57.150;-2.134;2023-08-07T11:52:05;17.00;99.90
23629;DHT22;11991;57.150;-2.134;2023-08-07T11:54:32;17.00;99.90
23629;DHT22;11991;57.150;-2.134;2023-08-07T11:57:00;17.10;99.90
23629;DHT22;11991;57.150;-2.134;2023-08-07T11:59:27;17.20;99.90
23629;DHT22;11991;57.150;-2.134;2023-08-07T12:01:54;17.30;99.90
23629;DHT22;11991;57.150;-2.134;2023-08-07T12:04:21;17.40;99.90
23629;DHT22;11991;57.150;-2.134;2023-08-07T12:06:56;17.50;99.90
23629;DHT22;11991;57.150;-2.134;2023-08-07T12:09:25;17.30;99.90
23629;DHT22;11991;57.150;-2.134;2023-08-07T12:11:59;17.10;99.90
23629;DHT22;11991;57.150;-2.134;2023-08-07T12:14:30;17.00;99.90
23629;DHT22;11991;57.150;-2.134;2023-08-07T12:17:00;16.90;99.90
23629;DHT22;11991;57.150;-2.134;2023-08-07T12:19:38;16.80;99.90
23629;DHT22;11991;57.150;-2.134;2023-08-07T12:22:09;16.80;99.90
23629;DHT22;11991;57.150;-2.134;2023-08-07T12:24:36;16.80;99.90
23629;DHT22;11991;57.150;-2.134;2023-08-07T12:27:05;16.80;99.90
23629;DHT22;11991;57.150;-2.134;2023-08-07T12:29:32;16.80;99.90
23629;DHT22;11991;57.150;-2.134;2023-08-07T12:31:59;16.90;99.90
23629;DHT22;11991;57.150;-2.134;2023-08-07T12:34:28;17.00;99.90
23629;DHT22;11991;57.150;-2.134;2023-08-07T12:36:58;17.10;99.90
23629;DHT22;11991;57.150;-2.134;2023-08-07T12:39:25;17.30;99.90
23629;DHT22;11991;57.150;-2.134;2023-08-07T12:41:56;17.50;99.90
23629;DHT22;11991;57.150;-2.134;2023-08-07T12:44:27;17.60;99.90
23629;DHT22;11991;57.150;-2.134;2023-08-07T12:46:54;17.60;99.90
23629;DHT22;11991;57.150;-2.134;2023-08-07T12:49:23;17.50;99.90
23629;DHT22;11991;57.150;-2.134;2023-08-07T12:51:51;17.50;99.90
23629;DHT22;11991;57.150;-2.134;2023-08-07T12:54:19;17.20;99.90
23629;DHT22;11991;57.150;-2.134;2023-08-07T12:56:47;17.00;99.90
23629;DHT22;11991;57.150;-2.134;2023-08-07T12:59:14;16.80;99.90
23629;DHT22;11991;57.150;-2.134;2023-08-07T13:01:41;16.50;99.90
23629;DHT22;11991;57.150;-2.134;2023-08-07T13:04:08;16.40;99.90
23629;DHT22;11991;57.150;-2.134;2023-08-07T13:06:35;16.30;99.90
23629;DHT22;11991;57.150;-2.134;2023-08-07T13:09:02;16.30;99.90
23629;DHT22;11991;57.150;-2.134;2023-08-07T13:11:30;16.30;99.90
23629;DHT22;11991;57.150;-2.134;2023-08-07T13:13:57;16.40;99.90
23629;DHT22;11991;57.150;-2.134;2023-08-07T13:16:24;16.40;99.90
23629;DHT22;11991;57.150;-2.134;2023-08-07T13:18:51;16.50;99.90
23629;DHT22;11991;57.150;-2.134;2023-08-07T13:21:18;16.60;99.90
23629;DHT22;11991;57.150;-2.134;2023-08-07T13:23:45;16.70;99.90
23629;DHT22;11991;57.150;-2.134;2023-08-07T13:26:12;16.80;99.90
23629;DHT22;11991;57.150;-2.134;2023-08-07T13:28:39;17.00;99.90
23629;DHT22;11991;57.150;-2.134;2023-08-07T13:31:07;17.10;99.90
23629;DHT22;11991;57.150;-2.134;2023-08-07T13:33:34;17.30;99.90
23629;DHT22;11991;57.150;-2.134;2023-08-07T13:36:01;17.40;99.90
23629;DHT22;11991;57.150;-2.134;2023-08-07T13:38:28;17.60;99.90
23629;DHT22;11991;57.150;-2.134;2023-08-07T13:40:55;17.70;99.90
23629;DHT22;11991;57.150;-2.134;2023-08-07T13:43:22;17.80;99.90
23629;DHT22;11991;57.150;-2.134;2023-08-07T13:45:49;17.90;99.90
23629;DHT22;11991;57.150;-2.134;2023-08-07T13:48:17;18.10;99.90
23629;DHT22;11991;57.150;-2.134;2023-08-07T13:50:45;18.20;99.90
23629;DHT22;11991;57.150;-2.134;2023-08-07T13:53:12;18.40;99.90
23629;DHT22;11991;57.150;-2.134;2023-08-07T13:55:42;18.40;99.90
23629;DHT22;11991;57.150;-2.134;2023-08-07T13:58:10;18.40;99.90
23629;DHT22;11991;57.150;-2.134;2023-08-07T14:00:37;18.40;99.90
23629;DHT22;11991;57.150;-2.134;2023-08-07T14:03:05;18.40;99.90
23629;DHT22;11991;57.150;-2.134;2023-08-07T14:05:33;18.30;99.90
23629;DHT22;11991;57.150;-2.134;2023-08-07T14:08:00;18.30;99.90
23629;DHT22;11991;57.150;-2.134;2023-08-07T14:10:27;18.30;99.90
23629;DHT22;11991;57.150;-2.134;2023-08-07T14:12:54;18.30;99.90
23629;DHT22;11991;57.150;-2.134;2023-08-07T14:15:21;18.30;99.90
23629;DHT22;11991;57.150;-2.134;2023-08-07T14:17:48;18.30;99.90
23629;DHT22;11991;57.150;-2.134;2023-08-07T14:20:16;18.30;99.90
23629;DHT22;11991;57.150;-2.134;2023-08-07T14:22:43;18.40;99.90
23629;DHT22;11991;57.150;-2.134;2023-08-07T14:25:10;18.40;99.90
23629;DHT22;11991;57.150;-2.134;2023-08-07T14:27:37;18.30;99.90
23629;DHT22;11991;57.150;-2.134;2023-08-07T14:30:04;18.40;99.90
23629;DHT22;11991;57.150;-2.134;2023-08-07T14:32:32;18.40;99.90
23629;DHT22;11991;57.150;-2.134;2023-08-07T14:34:59;18.40;99.90
23629;DHT22;11991;57.150;-2.134;2023-08-07T14:37:26;18.40;99.90
23629;DHT22;11991;57.150;-2.134;2023-08-07T14:39:53;18.20;99.90
23629;DHT22;11991;57.150;-2.134;2023-08-07T14:42:20;18.10;99.90
23629;DHT22;11991;57.150;-2.134;2023-08-07T14:44:47;18.00;99.90
23629;DHT22;11991;57.150;-2.134;2023-08-07T14:47:14;18.00;99.90
23629;DHT22;11991;57.150;-2.134;2023-08-07T14:49:42;18.00;99.90
23629;DHT22;11991;57.150;-2.134;2023-08-07T14:52:09;18.00;99.90
23629;DHT22;11991;57.150;-2.134;2023-08-07T14:54:36;17.90;99.90
23629;DHT22;11991;57.150;-2.134;2023-08-07T14:57:03;17.90;99.90
23629;DHT22;11991;57.150;-2.134;2023-08-07T14:59:30;17.80;99.90
23629;DHT22;11991;57.150;-2.134;2023-08-07T15:01:58;17.80;99.90
23629;DHT22;11991;57.150;-2.134;2023-08-07T15:04:26;17.70;99.90
23629;DHT22;11991;57.150;-2.134;2023-08-07T15:06:54;17.60;99.90
23629;DHT22;11991;57.150;-2.134;2023-08-07T15:09:21;17.60;99.90
23629;DHT22;11991;57.150;-2.134;2023-08-07T15:11:49;17.60;99.90
23629;DHT22;11991;57.150;-2.134;2023-08-07T15:14:16;17.50;99.90
23629;DHT22;11991;57.150;-2.134;2023-08-07T15:16:43;17.50;99.90
23629;DHT22;11991;57.150;-2.134;2023-08-07T15:19:11;17.40;99.90
23629;DHT22;11991;57.150;-2.134;2023-08-07T15:21:38;17.40;99.90
23629;DHT22;11991;57.150;-2.134;2023-08-07T15:24:05;17.40;99.90
23629;DHT22;11991;57.150;-2.134;2023-08-07T15:26:32;17.40;99.90
23629;DHT22;11991;57.150;-2.134;2023-08-07T15:28:59;17.40;99.90
23629;DHT22;11991;57.150;-2.134;2023-08-07T15:31:27;17.40;99.90
23629;DHT22;11991;57.150;-2.134;2023-08-07T15:33:54;17.40;99.90
23629;DHT22;11991;57.150;-2.134;2023-08-07T15:36:23;17.30;99.90